THY9QA LTFM-LROP
Flight info
| Callsign | THY9QA |
|---|---|
| Flight time | 0h 45m |
| Altitude | 36000 |
| Route | IBLAX1D/35L IBLAX P727 BGS L622 GONGO DCT KOMAN DCT OBUGA |
| Aircraft | A359/H-SDE2E3GHIJ3J4J5LM1ORWXY/LB1D1 |
Departure
| Time | 2026-05-04 20:58 |
|---|---|
| Airport | İstanbul Airport (LTFM) |
Arrival
| Time | 2026-05-04 21:43 |
|---|---|
| Airport | Bucharest Henri Coandă International Airport (LROP) |
| Time | Latitude | Longitude | Altitude | Speed | Heading |
|---|---|---|---|---|---|
| 2026-05-04 20:00 | 41.26607 | 28.74122 | 338 ft | 0 kts | 88° |
| 2026-05-04 20:43 | 41.26607 | 28.74120 | 340 ft | 2 kts | 88° |
| 2026-05-04 20:43 | 41.26606 | 28.74085 | 339 ft | 4 kts | 88° |
| 2026-05-04 20:43 | 41.26606 | 28.74053 | 340 ft | 4 kts | 83° |
| 2026-05-04 20:43 | 41.26597 | 28.74027 | 335 ft | 4 kts | 19° |
| 2026-05-04 20:44 | 41.26572 | 28.74024 | 340 ft | 4 kts | 357° |
| 2026-05-04 20:44 | 41.26566 | 28.74024 | 339 ft | 4 kts | 359° |
| 2026-05-04 20:48 | 41.26637 | 28.74022 | 338 ft | 16 kts | 359° |
| 2026-05-04 20:48 | 41.26755 | 28.74019 | 337 ft | 18 kts | 359° |
| 2026-05-04 20:48 | 41.26890 | 28.74016 | 335 ft | 21 kts | 359° |
| 2026-05-04 20:48 | 41.27032 | 28.73989 | 335 ft | 20 kts | 315° |
| 2026-05-04 20:49 | 41.27050 | 28.73809 | 336 ft | 21 kts | 269° |
| 2026-05-04 20:49 | 41.27048 | 28.73604 | 337 ft | 23 kts | 269° |
| 2026-05-04 20:49 | 41.27045 | 28.73432 | 335 ft | 17 kts | 269° |
| 2026-05-04 20:49 | 41.27044 | 28.73317 | 337 ft | 11 kts | 269° |
| 2026-05-04 20:50 | 41.27042 | 28.73199 | 337 ft | 14 kts | 269° |
| 2026-05-04 20:50 | 41.27040 | 28.73058 | 338 ft | 16 kts | 265° |
| 2026-05-04 20:50 | 41.26982 | 28.72985 | 336 ft | 7 kts | 182° |
| 2026-05-04 20:50 | 41.26922 | 28.72988 | 340 ft | 10 kts | 178° |
| 2026-05-04 20:51 | 41.26873 | 28.72989 | 338 ft | 0 kts | 178° |
| 2026-05-04 20:51 | 41.26872 | 28.72989 | 336 ft | 2 kts | 179° |
| 2026-05-04 20:51 | 41.26820 | 28.72990 | 336 ft | 10 kts | 179° |
| 2026-05-04 20:52 | 41.26767 | 28.72991 | 340 ft | 9 kts | 179° |
| 2026-05-04 20:52 | 41.26713 | 28.72992 | 336 ft | 7 kts | 179° |
| 2026-05-04 20:52 | 41.26669 | 28.72993 | 336 ft | 4 kts | 179° |
| 2026-05-04 20:52 | 41.26629 | 28.72991 | 340 ft | 6 kts | 189° |
| 2026-05-04 20:53 | 41.26603 | 28.72951 | 337 ft | 3 kts | 258° |
| 2026-05-04 20:56 | 41.26596 | 28.72885 | 336 ft | 17 kts | 266° |
| 2026-05-04 20:56 | 41.26591 | 28.72667 | 339 ft | 23 kts | 269° |
| 2026-05-04 20:56 | 41.26641 | 28.72519 | 339 ft | 15 kts | 355° |
| 2026-05-04 20:57 | 41.26656 | 28.72517 | 340 ft | 3 kts | 357° |
| 2026-05-04 20:57 | 41.26931 | 28.72509 | 339 ft | 89 kts | 359° |
| 2026-05-04 20:57 | 41.27888 | 28.72485 | 375 ft | 180 kts | 358° |
| 2026-05-04 20:57 | 41.29319 | 28.72447 | 810 ft | 231 kts | 357° |
| 2026-05-04 20:58 | 41.31055 | 28.72438 | 1800 ft | 267 kts | 360° |
| 2026-05-04 20:58 | 41.32949 | 28.72492 | 2913 ft | 268 kts | 359° |
| 2026-05-04 20:58 | 41.34746 | 28.72522 | 4308 ft | 252 kts | 358° |
| 2026-05-04 20:58 | 41.36475 | 28.72524 | 5495 ft | 244 kts | 358° |
| 2026-05-04 20:59 | 41.38165 | 28.72383 | 6534 ft | 243 kts | 349° |
| 2026-05-04 20:59 | 41.39762 | 28.71613 | 7511 ft | 246 kts | 338° |
| 2026-05-04 20:59 | 41.41311 | 28.70622 | 8501 ft | 248 kts | 336° |
| 2026-05-04 20:59 | 41.42880 | 28.69597 | 9453 ft | 252 kts | 336° |
| 2026-05-04 21:00 | 41.44451 | 28.68578 | 10323 ft | 259 kts | 338° |
| 2026-05-04 21:00 | 41.46147 | 28.67493 | 10791 ft | 282 kts | 339° |
| 2026-05-04 21:00 | 41.47995 | 28.66317 | 11171 ft | 305 kts | 339° |
| 2026-05-04 21:00 | 41.49963 | 28.65058 | 11755 ft | 320 kts | 339° |
| 2026-05-04 21:01 | 41.51989 | 28.63758 | 12565 ft | 326 kts | 339° |
| 2026-05-04 21:01 | 41.54052 | 28.62434 | 13361 ft | 332 kts | 339° |
| 2026-05-04 21:01 | 41.56141 | 28.61070 | 14179 ft | 336 kts | 338° |
| 2026-05-04 21:01 | 41.58102 | 28.59276 | 14939 ft | 350 kts | 323° |
| 2026-05-04 21:02 | 41.59826 | 28.56932 | 15686 ft | 358 kts | 318° |
| 2026-05-04 21:02 | 41.61511 | 28.54446 | 16412 ft | 363 kts | 318° |
| 2026-05-04 21:02 | 41.63215 | 28.51918 | 17152 ft | 368 kts | 318° |
| 2026-05-04 21:02 | 41.64940 | 28.49371 | 17889 ft | 371 kts | 318° |
| 2026-05-04 21:03 | 41.66789 | 28.46956 | 18592 ft | 371 kts | 327° |
| 2026-05-04 21:03 | 41.68945 | 28.45120 | 19311 ft | 366 kts | 339° |
| 2026-05-04 21:03 | 41.71280 | 28.43732 | 20074 ft | 368 kts | 342° |
| 2026-05-04 21:03 | 41.73651 | 28.42416 | 20830 ft | 371 kts | 342° |
| 2026-05-04 21:04 | 41.76048 | 28.41087 | 21538 ft | 375 kts | 342° |
| 2026-05-04 21:04 | 41.78474 | 28.39735 | 22195 ft | 379 kts | 342° |
| 2026-05-04 21:04 | 41.80887 | 28.38386 | 22863 ft | 383 kts | 342° |
| 2026-05-04 21:04 | 41.83367 | 28.36997 | 23529 ft | 386 kts | 342° |
| 2026-05-04 21:05 | 41.85856 | 28.35601 | 24184 ft | 390 kts | 342° |
| 2026-05-04 21:05 | 41.88367 | 28.34191 | 24778 ft | 394 kts | 342° |
| 2026-05-04 21:05 | 41.90919 | 28.32755 | 25349 ft | 398 kts | 342° |
| 2026-05-04 21:05 | 41.93478 | 28.31306 | 25958 ft | 402 kts | 341° |
| 2026-05-04 21:06 | 41.96003 | 28.29581 | 26525 ft | 410 kts | 333° |
| 2026-05-04 21:06 | 41.98300 | 28.27331 | 27087 ft | 420 kts | 324° |
| 2026-05-04 21:06 | 42.00343 | 28.24465 | 27632 ft | 430 kts | 314° |
| 2026-05-04 21:06 | 42.02148 | 28.21223 | 28142 ft | 436 kts | 311° |
| 2026-05-04 21:07 | 42.03884 | 28.17851 | 28676 ft | 440 kts | 309° |
| 2026-05-04 21:07 | 42.05594 | 28.14408 | 29193 ft | 443 kts | 309° |
| 2026-05-04 21:07 | 42.07297 | 28.10940 | 29682 ft | 446 kts | 309° |
| 2026-05-04 21:07 | 42.09009 | 28.07460 | 30169 ft | 448 kts | 309° |
| 2026-05-04 21:08 | 42.10748 | 28.03948 | 30635 ft | 451 kts | 309° |
| 2026-05-04 21:08 | 42.12511 | 28.00411 | 31039 ft | 455 kts | 309° |
| 2026-05-04 21:08 | 42.14283 | 27.96866 | 31431 ft | 458 kts | 309° |
| 2026-05-04 21:08 | 42.16073 | 27.93294 | 31805 ft | 461 kts | 309° |
| 2026-05-04 21:09 | 42.17876 | 27.89694 | 32158 ft | 464 kts | 309° |
| 2026-05-04 21:09 | 42.19696 | 27.86081 | 32498 ft | 467 kts | 310° |
| 2026-05-04 21:09 | 42.21737 | 27.82698 | 32832 ft | 463 kts | 318° |
| 2026-05-04 21:09 | 42.24097 | 27.79760 | 33157 ft | 459 kts | 326° |
| 2026-05-04 21:10 | 42.26724 | 27.77371 | 33603 ft | 454 kts | 333° |
| 2026-05-04 21:10 | 42.29432 | 27.75247 | 33902 ft | 456 kts | 334° |
| 2026-05-04 21:10 | 42.32218 | 27.73173 | 34191 ft | 457 kts | 335° |
| 2026-05-04 21:10 | 42.35022 | 27.71137 | 34579 ft | 457 kts | 335° |
| 2026-05-04 21:11 | 42.37828 | 27.69113 | 34932 ft | 457 kts | 335° |
| 2026-05-04 21:11 | 42.40642 | 27.67078 | 35274 ft | 457 kts | 335° |
| 2026-05-04 21:11 | 42.43449 | 27.65036 | 35568 ft | 458 kts | 334° |
| 2026-05-04 21:11 | 42.46261 | 27.62981 | 35852 ft | 459 kts | 334° |
| 2026-05-04 21:12 | 42.49068 | 27.60921 | 36046 ft | 461 kts | 334° |
| 2026-05-04 21:12 | 42.51886 | 27.58844 | 36071 ft | 459 kts | 334° |
| 2026-05-04 21:12 | 42.57496 | 27.54677 | 36072 ft | 459 kts | 332° |
| 2026-05-04 21:13 | 42.62780 | 27.49828 | 36073 ft | 462 kts | 327° |
| 2026-05-04 21:13 | 42.68009 | 27.44722 | 36078 ft | 462 kts | 327° |
| 2026-05-04 21:14 | 42.73225 | 27.39566 | 36067 ft | 463 kts | 326° |
| 2026-05-04 21:14 | 42.78414 | 27.34437 | 36073 ft | 463 kts | 326° |
| 2026-05-04 21:15 | 42.81018 | 27.31863 | 35865 ft | 463 kts | 326° |
| 2026-05-04 21:15 | 42.83634 | 27.29277 | 35632 ft | 466 kts | 326° |
| 2026-05-04 21:15 | 42.86282 | 27.26658 | 35374 ft | 467 kts | 326° |
| 2026-05-04 21:15 | 42.88886 | 27.24080 | 35118 ft | 468 kts | 326° |
| 2026-05-04 21:16 | 42.91525 | 27.21462 | 34870 ft | 468 kts | 326° |
| 2026-05-04 21:16 | 42.94164 | 27.18840 | 34619 ft | 468 kts | 326° |
| 2026-05-04 21:16 | 42.96797 | 27.16223 | 34367 ft | 469 kts | 326° |
| 2026-05-04 21:16 | 42.99440 | 27.13592 | 34115 ft | 469 kts | 326° |
| 2026-05-04 21:17 | 43.02079 | 27.10963 | 33862 ft | 469 kts | 326° |
| 2026-05-04 21:17 | 43.04717 | 27.08335 | 33617 ft | 470 kts | 326° |
| 2026-05-04 21:17 | 43.07328 | 27.05734 | 33360 ft | 468 kts | 326° |
| 2026-05-04 21:17 | 43.09975 | 27.03096 | 33110 ft | 470 kts | 326° |
| 2026-05-04 21:18 | 43.12656 | 27.00499 | 32862 ft | 471 kts | 328° |
| 2026-05-04 21:18 | 43.15378 | 26.98010 | 32602 ft | 470 kts | 329° |
| 2026-05-04 21:18 | 43.18089 | 26.95594 | 32347 ft | 471 kts | 329° |
| 2026-05-04 21:18 | 43.20842 | 26.93151 | 32116 ft | 471 kts | 329° |
| 2026-05-04 21:19 | 43.23595 | 26.90693 | 31859 ft | 471 kts | 328° |
| 2026-05-04 21:19 | 43.26346 | 26.88217 | 31604 ft | 472 kts | 328° |
| 2026-05-04 21:19 | 43.29088 | 26.85731 | 31345 ft | 472 kts | 328° |
| 2026-05-04 21:19 | 43.31824 | 26.83240 | 31113 ft | 470 kts | 328° |
| 2026-05-04 21:20 | 43.34545 | 26.80739 | 30859 ft | 468 kts | 327° |
| 2026-05-04 21:20 | 43.37241 | 26.78254 | 30598 ft | 466 kts | 327° |
| 2026-05-04 21:20 | 43.39901 | 26.75803 | 30363 ft | 464 kts | 327° |
| 2026-05-04 21:20 | 43.42581 | 26.73330 | 30121 ft | 462 kts | 327° |
| 2026-05-04 21:21 | 43.45247 | 26.70870 | 29864 ft | 460 kts | 327° |
| 2026-05-04 21:21 | 43.47901 | 26.68417 | 29614 ft | 458 kts | 327° |
| 2026-05-04 21:21 | 43.50546 | 26.65970 | 29367 ft | 457 kts | 327° |
| 2026-05-04 21:21 | 43.53178 | 26.63531 | 29114 ft | 455 kts | 327° |
| 2026-05-04 21:22 | 43.55774 | 26.61125 | 28868 ft | 454 kts | 327° |
| 2026-05-04 21:22 | 43.58391 | 26.58697 | 28619 ft | 453 kts | 327° |
| 2026-05-04 21:22 | 43.61002 | 26.56273 | 28373 ft | 451 kts | 327° |
| 2026-05-04 21:22 | 43.63601 | 26.53857 | 28117 ft | 450 kts | 327° |
| 2026-05-04 21:23 | 43.66234 | 26.51408 | 27917 ft | 463 kts | 327° |
| 2026-05-04 21:23 | 43.68944 | 26.48885 | 27856 ft | 476 kts | 327° |
| 2026-05-04 21:23 | 43.71678 | 26.46335 | 27685 ft | 472 kts | 327° |
| 2026-05-04 21:23 | 43.74402 | 26.43792 | 27434 ft | 473 kts | 327° |
| 2026-05-04 21:24 | 43.77120 | 26.41251 | 26989 ft | 470 kts | 326° |
| 2026-05-04 21:24 | 43.79783 | 26.38759 | 26294 ft | 465 kts | 326° |
| 2026-05-04 21:24 | 43.82453 | 26.36257 | 25635 ft | 460 kts | 326° |
| 2026-05-04 21:24 | 43.85093 | 26.33781 | 24998 ft | 457 kts | 326° |
| 2026-05-04 21:25 | 43.87721 | 26.31314 | 24368 ft | 454 kts | 326° |
| 2026-05-04 21:25 | 43.90315 | 26.28875 | 23747 ft | 448 kts | 326° |
| 2026-05-04 21:25 | 43.92882 | 26.26459 | 23106 ft | 441 kts | 327° |
| 2026-05-04 21:25 | 43.95399 | 26.24088 | 22469 ft | 435 kts | 327° |
| 2026-05-04 21:26 | 43.97887 | 26.21741 | 21840 ft | 429 kts | 327° |
| 2026-05-04 21:26 | 44.00345 | 26.19420 | 21225 ft | 423 kts | 327° |
| 2026-05-04 21:26 | 44.02733 | 26.17165 | 20612 ft | 417 kts | 327° |
| 2026-05-04 21:26 | 44.05121 | 26.14907 | 19983 ft | 412 kts | 327° |
| 2026-05-04 21:27 | 44.07468 | 26.12682 | 19360 ft | 407 kts | 327° |
| 2026-05-04 21:27 | 44.09672 | 26.10213 | 18735 ft | 404 kts | 316° |
| 2026-05-04 21:27 | 44.11316 | 26.07054 | 18122 ft | 405 kts | 299° |
| 2026-05-04 21:27 | 44.12343 | 26.03401 | 17493 ft | 403 kts | 291° |
| 2026-05-04 21:28 | 44.13187 | 25.99693 | 16866 ft | 400 kts | 290° |
| 2026-05-04 21:28 | 44.14013 | 25.96014 | 16248 ft | 396 kts | 290° |
| 2026-05-04 21:28 | 44.14837 | 25.92364 | 15634 ft | 393 kts | 291° |
| 2026-05-04 21:28 | 44.15645 | 25.88807 | 15020 ft | 389 kts | 291° |
| 2026-05-04 21:29 | 44.16458 | 25.85230 | 14404 ft | 385 kts | 291° |
| 2026-05-04 21:29 | 44.17264 | 25.81690 | 13793 ft | 382 kts | 291° |
| 2026-05-04 21:29 | 44.18060 | 25.78187 | 13192 ft | 378 kts | 292° |
| 2026-05-04 21:29 | 44.18934 | 25.74773 | 12835 ft | 364 kts | 298° |
| 2026-05-04 21:30 | 44.19700 | 25.72769 | 12599 ft | 343 kts | 307° |
| 2026-05-04 21:30 | 44.21149 | 25.70332 | 12210 ft | 312 kts | 323° |
| 2026-05-04 21:30 | 44.22874 | 25.68678 | 11586 ft | 293 kts | 341° |
| 2026-05-04 21:30 | 44.24765 | 25.67824 | 10889 ft | 281 kts | 350° |
| 2026-05-04 21:31 | 44.28507 | 25.66627 | 9565 ft | 268 kts | 351° |
| 2026-05-04 21:31 | 44.30335 | 25.66059 | 9193 ft | 269 kts | 351° |
| 2026-05-04 21:31 | 44.32159 | 25.65472 | 8856 ft | 269 kts | 348° |
| 2026-05-04 21:32 | 44.33833 | 25.64266 | 8524 ft | 277 kts | 323° |
| 2026-05-04 21:32 | 44.35193 | 25.62338 | 8193 ft | 278 kts | 318° |
| 2026-05-04 21:32 | 44.36532 | 25.60400 | 7881 ft | 277 kts | 318° |
| 2026-05-04 21:32 | 44.37863 | 25.58501 | 7559 ft | 276 kts | 318° |
| 2026-05-04 21:33 | 44.39204 | 25.56603 | 7241 ft | 274 kts | 318° |
| 2026-05-04 21:33 | 44.40550 | 25.54716 | 6928 ft | 272 kts | 318° |
| 2026-05-04 21:33 | 44.41893 | 25.52861 | 6593 ft | 271 kts | 319° |
| 2026-05-04 21:33 | 44.43318 | 25.51149 | 6258 ft | 268 kts | 328° |
| 2026-05-04 21:34 | 44.45005 | 25.50121 | 5935 ft | 264 kts | 346° |
| 2026-05-04 21:34 | 44.46798 | 25.49586 | 5735 ft | 262 kts | 354° |
| 2026-05-04 21:34 | 44.48620 | 25.49664 | 5722 ft | 263 kts | 12° |
| 2026-05-04 21:34 | 44.50267 | 25.50711 | 5674 ft | 263 kts | 40° |
| 2026-05-04 21:35 | 44.51405 | 25.52707 | 5451 ft | 264 kts | 62° |
| 2026-05-04 21:35 | 44.52015 | 25.55131 | 5285 ft | 265 kts | 71° |
| 2026-05-04 21:35 | 44.52612 | 25.57580 | 5154 ft | 266 kts | 71° |
| 2026-05-04 21:35 | 44.52947 | 25.60134 | 5026 ft | 267 kts | 83° |
| 2026-05-04 21:36 | 44.53095 | 25.62723 | 4912 ft | 267 kts | 84° |
| 2026-05-04 21:36 | 44.53247 | 25.65301 | 4765 ft | 264 kts | 83° |
| 2026-05-04 21:36 | 44.53419 | 25.67868 | 4532 ft | 266 kts | 83° |
| 2026-05-04 21:36 | 44.53627 | 25.70442 | 4209 ft | 265 kts | 79° |
| 2026-05-04 21:37 | 44.54006 | 25.72963 | 3927 ft | 264 kts | 76° |
| 2026-05-04 21:37 | 44.54404 | 25.75408 | 3812 ft | 250 kts | 76° |
| 2026-05-04 21:37 | 44.54776 | 25.77730 | 3694 ft | 238 kts | 77° |
| 2026-05-04 21:37 | 44.55106 | 25.79917 | 3579 ft | 227 kts | 77° |
| 2026-05-04 21:38 | 44.55534 | 25.81987 | 3498 ft | 214 kts | 75° |
| 2026-05-04 21:38 | 44.55734 | 25.83983 | 3425 ft | 201 kts | 85° |
| 2026-05-04 21:38 | 44.55880 | 25.85860 | 3356 ft | 186 kts | 81° |
| 2026-05-04 21:38 | 44.56060 | 25.87593 | 3245 ft | 174 kts | 82° |
| 2026-05-04 21:39 | 44.56200 | 25.89229 | 3024 ft | 164 kts | 84° |
| 2026-05-04 21:39 | 44.56316 | 25.90777 | 2786 ft | 154 kts | 83° |
| 2026-05-04 21:39 | 44.56430 | 25.92227 | 2581 ft | 145 kts | 83° |
| 2026-05-04 21:39 | 44.56503 | 25.93145 | 2467 ft | 140 kts | 82° |
| 2026-05-04 21:40 | 44.56607 | 25.94482 | 2280 ft | 138 kts | 83° |
| 2026-05-04 21:40 | 44.56709 | 25.95821 | 2095 ft | 138 kts | 83° |
| 2026-05-04 21:40 | 44.56810 | 25.97157 | 1907 ft | 137 kts | 84° |
| 2026-05-04 21:40 | 44.56909 | 25.98480 | 1725 ft | 136 kts | 84° |
| 2026-05-04 21:41 | 44.57009 | 25.99794 | 1540 ft | 135 kts | 83° |
| 2026-05-04 21:41 | 44.57107 | 26.01086 | 1371 ft | 134 kts | 82° |
| 2026-05-04 21:41 | 44.57212 | 26.02384 | 1198 ft | 134 kts | 81° |
| 2026-05-04 21:41 | 44.57310 | 26.03677 | 1024 ft | 133 kts | 83° |
| 2026-05-04 21:42 | 44.57392 | 26.04973 | 829 ft | 133 kts | 84° |
| 2026-05-04 21:42 | 44.57497 | 26.06259 | 659 ft | 132 kts | 80° |
| 2026-05-04 21:42 | 44.57606 | 26.07543 | 490 ft | 133 kts | 82° |
| 2026-05-04 21:42 | 44.57699 | 26.08827 | 334 ft | 132 kts | 82° |
| 2026-05-04 21:43 | 44.57777 | 26.09925 | 326 ft | 77 kts | 84° |
| 2026-05-04 21:43 | 44.57824 | 26.10531 | 327 ft | 59 kts | 84° |
| 2026-05-04 21:43 | 44.57795 | 26.11029 | 322 ft | 44 kts | 112° |
| 2026-05-04 21:43 | 44.57687 | 26.11117 | 326 ft | 13 kts | 257° |
| 2026-05-04 21:44 | 44.57682 | 26.10974 | 326 ft | 16 kts | 266° |
| 2026-05-04 21:44 | 44.57669 | 26.10813 | 327 ft | 18 kts | 263° |
| 2026-05-04 21:44 | 44.57656 | 26.10627 | 327 ft | 20 kts | 264° |
| 2026-05-04 21:44 | 44.57642 | 26.10431 | 324 ft | 21 kts | 264° |
| 2026-05-04 21:45 | 44.57626 | 26.10216 | 323 ft | 23 kts | 264° |
| 2026-05-04 21:45 | 44.57608 | 26.09988 | 327 ft | 24 kts | 264° |
| 2026-05-04 21:45 | 44.57590 | 26.09747 | 326 ft | 25 kts | 264° |
| 2026-05-04 21:45 | 44.57570 | 26.09495 | 327 ft | 26 kts | 264° |
| 2026-05-04 21:46 | 44.57552 | 26.09234 | 324 ft | 27 kts | 264° |
| 2026-05-04 21:46 | 44.57531 | 26.08965 | 324 ft | 28 kts | 264° |
| 2026-05-04 21:46 | 44.57510 | 26.08687 | 327 ft | 29 kts | 264° |
| 2026-05-04 21:46 | 44.57498 | 26.08540 | 323 ft | 11 kts | 257° |
| 2026-05-04 21:47 | 44.57438 | 26.08479 | 324 ft | 12 kts | 183° |
| 2026-05-04 21:47 | 44.57342 | 26.08489 | 326 ft | 16 kts | 174° |
| 2026-05-04 21:47 | 44.57244 | 26.08465 | 323 ft | 12 kts | 234° |
| 2026-05-04 21:47 | 44.57214 | 26.08341 | 323 ft | 15 kts | 236° |
| 2026-05-04 21:48 | 44.57179 | 26.08294 | 323 ft | 2 kts | 218° |
| 2026-05-04 21:48 | 44.57160 | 26.08272 | 326 ft | 6 kts | 218° |
| 2026-05-04 21:48 | 44.57150 | 26.08262 | 327 ft | 1 kts | 218° |
| 2026-05-04 21:48 | 44.57137 | 26.08247 | 322 ft | 2 kts | 219° |
| 2026-05-04 21:49 | 44.57135 | 26.08244 | 327 ft | 0 kts | 220° |